Time;durP1;ratioP1;P1;durP2;ratioP2;P2;SDS_P1;SDS_P2;PMS_P1;PMS_P2;Temp;Humidity;BMP_temperature;BMP_pressure;BME280_temperature;BME280_humidity;BME280_pressure;Samples;Min_cycle;Max_cycle;Signal;HPM_P1;HPM_P2
2021/12/10 00:00:30;;;;;;;18.93;8.97;;;;;;;;;;5014667;28;20057;-91
2021/12/10 00:02:58;;;;;;;20.35;8.88;;;;;;;;;;5013304;28;32523;-92
2021/12/10 00:05:28;;;;;;;26.30;9.60;;;;;;;;;;5013085;28;20080;-92
2021/12/10 00:07:56;;;;;;;16.75;8.57;;;;;;;;;;5012202;28;43977;-91
2021/12/10 00:10:25;;;;;;;16.75;8.30;;;;;;;;;;5011313;28;43668;-92
2021/12/10 00:12:53;;;;;;;27.85;9.25;;;;;;;;;;5011701;28;46045;-92
2021/12/10 00:15:24;;;;;;;21.52;9.07;;;;;;;;;;5011648;28;44935;-92
2021/12/10 00:17:55;;;;;;;25.67;9.43;;;;;;;;;;5011629;28;44652;-92
2021/12/10 00:20:24;;;;;;;20.20;8.85;;;;;;;;;;5012292;28;45164;-92
2021/12/10 00:22:56;;;;;;;22.73;9.30;;;;;;;;;;5011279;28;44838;-93
2021/12/10 00:25:34;;;;;;;26.90;9.75;;;;;;;;;;5011577;28;45829;-92
2021/12/10 00:28:02;;;;;;;23.45;9.43;;;;;;;;;;5013095;28;42921;-92
2021/12/10 00:30:31;;;;;;;;;;;;;;;;;;5013649;28;45027;-91
2021/12/10 00:33:02;;;;;;;;;;;;;;;;;;5012625;28;45168;-92
2021/12/10 00:35:30;;;;;;;23.40;8.75;;;;;;;;;;5012213;28;45128;-92
2021/12/10 00:37:57;;;;;;;24.80;10.45;;;;;;;;;;5011581;28;44624;-94
2021/12/10 00:40:24;;;;;;;22.17;10.68;;;;;;;;;;5010586;28;46115;-92
2021/12/10 00:42:52;;;;;;;21.83;10.98;;;;;;;;;;5010801;28;43809;-93
2021/12/10 00:45:19;;;;;;;25.95;11.23;;;;;;;;;;5010954;28;45808;-91
2021/12/10 00:47:49;;;;;;;21.60;10.70;;;;;;;;;;5011378;28;45948;-91
2021/12/10 00:50:18;;;;;;;23.70;10.88;;;;;;;;;;5011071;28;45709;-94
2021/12/10 00:52:46;;;;;;;25.10;10.45;;;;;;;;;;5009981;28;44890;-91
2021/12/10 00:55:13;;;;;;;24.42;11.00;;;;;;;;;;5011800;28;42937;-92
2021/12/10 00:57:41;;;;;;;21.23;10.55;;;;;;;;;;5011724;28;43454;-93
2021/12/10 01:00:11;;;;;;;23.92;10.18;;;;;;;;;;5010564;28;43979;-92
2021/12/10 01:02:37;;;;;;;25.35;11.70;;;;;;;;;;5010986;28;44315;-91
2021/12/10 01:05:05;;;;;;;19.95;11.00;;;;;;;;;;5012108;28;45813;-92
2021/12/10 01:07:33;;;;;;;25.17;11.25;;;;;;;;;;5010016;28;44945;-91
2021/12/10 01:10:06;;;;;;;19.85;10.32;;;;;;;;;;5011215;28;45886;-93
2021/12/10 01:12:37;;;;;;;28.13;11.73;;;;;;;;;;5010086;28;43838;-93
2021/12/10 01:15:32;;;;;;;25.02;11.25;;;;;;;;;;5010008;28;43918;-92
2021/12/10 01:29:26;;;;;;;21.20;10.35;;;;;;;;;;5009878;28;46147;-92
2021/12/10 01:31:53;;;;;;;24.58;10.73;;;;;;;;;;5010143;28;44033;-93
2021/12/10 01:34:24;;;;;;;21.10;10.48;;;;;;;;;;5010444;28;45960;-92
2021/12/10 01:36:51;;;;;;;18.05;10.48;;;;;;;;;;5010422;28;20054;-92
2021/12/10 01:39:21;;;;;;;23.27;11.23;;;;;;;;;;5010559;28;45751;-92
2021/12/10 01:41:55;;;;;;;20.75;10.93;;;;;;;;;;5008635;28;43971;-92
2021/12/10 01:44:29;;;;;;;24.70;10.70;;;;;;;;;;5010068;28;42615;-93
2021/12/10 01:46:57;;;;;;;19.40;10.07;;;;;;;;;;5010025;28;44728;-92
2021/12/10 01:49:24;;;;;;;20.40;10.10;;;;;;;;;;5009558;28;45962;-92
2021/12/10 01:51:51;;;;;;;19.77;11.63;;;;;;;;;;5009675;28;42910;-93
2021/12/10 01:54:25;;;;;;;18.00;8.98;;;;;;;;;;5010939;28;43654;-92
2021/12/10 01:56:55;;;;;;;17.83;9.80;;;;;;;;;;5009845;28;43902;-93
2021/12/10 01:59:23;;;;;;;21.95;9.75;;;;;;;;;;5010801;28;45669;-93
2021/12/10 02:01:51;;;;;;;18.37;9.50;;;;;;;;;;5009658;28;44851;-92
2021/12/10 02:04:19;;;;;;;17.95;9.50;;;;;;;;;;5009010;28;45012;-92
2021/12/10 02:06:46;;;;;;;16.55;8.82;;;;;;;;;;5009775;28;45970;-91
2021/12/10 02:09:14;;;;;;;19.17;9.90;;;;;;;;;;5012425;28;20065;-92
2021/12/10 02:11:41;;;;;;;17.35;9.38;;;;;;;;;;5009315;28;42804;-93
2021/12/10 02:14:08;;;;;;;19.42;9.55;;;;;;;;;;5010114;28;43692;-92
2021/12/10 02:16:36;;;;;;;26.75;9.80;;;;;;;;;;5009486;28;45899;-93
2021/12/10 02:19:05;;;;;;;21.42;9.20;;;;;;;;;;5009464;28;46059;-93
2021/12/10 02:21:34;;;;;;;19.55;8.57;;;;;;;;;;5009678;28;45243;-93
2021/12/10 02:24:02;;;;;;;23.80;9.38;;;;;;;;;;5009493;28;44831;-95
2021/12/10 02:26:33;;;;;;;18.80;9.10;;;;;;;;;;5009744;28;45812;-93
2021/12/10 02:29:00;;;;;;;17.00;9.05;;;;;;;;;;5010576;28;46007;-94
2021/12/10 02:31:27;;;;;;;18.52;8.68;;;;;;;;;;5009916;28;43931;-93
2021/12/10 02:33:56;;;;;;;21.55;9.07;;;;;;;;;;5012122;28;20134;-93
2021/12/10 02:36:23;;;;;;;19.08;8.82;;;;;;;;;;5016459;28;45152;-93
2021/12/10 02:38:52;;;;;;;14.93;8.40;;;;;;;;;;5022964;28;43930;-92
2021/12/10 02:41:19;;;;;;;24.02;9.05;;;;;;;;;;5018261;28;45356;-92
2021/12/10 02:43:47;;;;;;;15.88;8.95;;;;;;;;;;5010054;28;44978;-91
2021/12/10 02:46:14;;;;;;;19.23;8.75;;;;;;;;;;5008864;28;45968;-90
2021/12/10 02:48:41;;;;;;;24.15;9.38;;;;;;;;;;5009592;28;46058;-92
2021/12/10 02:51:09;;;;;;;24.08;9.18;;;;;;;;;;5008641;28;42864;-90
2021/12/10 02:53:41;;;;;;;17.80;9.03;;;;;;;;;;5008661;28;46029;-93
2021/12/10 02:56:09;;;;;;;17.33;8.25;;;;;;;;;;5008514;28;45856;-94
2021/12/10 02:58:36;;;;;;;18.25;8.77;;;;;;;;;;5009559;28;42256;-93
2021/12/10 03:01:03;;;;;;;15.73;8.25;;;;;;;;;;5008083;28;43745;-87
2021/12/10 03:03:30;;;;;;;20.98;8.30;;;;;;;;;;5015997;28;20052;-91
2021/12/10 03:05:57;;;;;;;14.73;7.53;;;;;;;;;;5027169;28;42441;-90
2021/12/10 03:08:24;;;;;;;13.52;7.55;;;;;;;;;;5028843;28;43387;-91
2021/12/10 03:10:50;;;;;;;17.60;7.50;;;;;;;;;;5028575;28;45002;-92
2021/12/10 03:13:17;;;;;;;16.40;8.10;;;;;;;;;;5027956;28;44232;-92
2021/12/10 03:15:44;;;;;;;18.25;6.93;;;;;;;;;;5028291;28;44034;-93
2021/12/10 03:18:13;;;;;;;15.15;5.85;;;;;;;;;;5029036;28;43021;-92
2021/12/10 03:20:39;;;;;;;;;;;;;;;;;;5028715;28;43656;-93
2021/12/10 03:23:06;;;;;;;11.63;5.80;;;;;;;;;;5028843;28;43865;-93
2021/12/10 03:25:33;;;;;;;7.00;5.22;;;;;;;;;;5028162;28;43854;-90
2021/12/10 03:28:00;;;;;;;16.73;5.60;;;;;;;;;;5027983;28;45999;-92
2021/12/10 03:30:29;;;;;;;14.48;5.35;;;;;;;;;;5016002;28;44336;-92
2021/12/10 03:32:55;;;;;;;9.27;5.00;;;;;;;;;;5008206;28;45159;-92
2021/12/10 03:35:26;;;;;;;7.32;4.25;;;;;;;;;;5008081;28;45942;-92
2021/12/10 03:37:53;;;;;;;7.45;4.75;;;;;;;;;;5010571;28;44882;-92
2021/12/10 03:40:20;;;;;;;8.23;4.38;;;;;;;;;;5012054;28;44647;-91
2021/12/10 03:42:47;;;;;;;8.45;4.15;;;;;;;;;;5010839;28;45980;-91
2021/12/10 03:45:15;;;;;;;11.63;4.10;;;;;;;;;;5011929;28;43412;-92
2021/12/10 03:47:42;;;;;;;8.93;4.15;;;;;;;;;;5011683;28;44874;-92
2021/12/10 03:50:11;;;;;;;10.32;4.05;;;;;;;;;;5011279;28;44869;-91
2021/12/10 03:52:38;;;;;;;10.10;4.35;;;;;;;;;;5011462;28;45758;-92
2021/12/10 03:55:05;;;;;;;12.27;5.32;;;;;;;;;;5011669;28;43956;-92
2021/12/10 03:57:32;;;;;;;15.48;4.63;;;;;;;;;;5010816;28;43902;-92
2021/12/10 03:59:59;;;;;;;9.80;3.80;;;;;;;;;;5012040;28;45760;-92
2021/12/10 04:02:26;;;;;;;11.68;3.70;;;;;;;;;;5010275;28;46002;-91
2021/12/10 04:04:53;;;;;;;7.15;3.72;;;;;;;;;;5012304;28;43837;-92
2021/12/10 04:07:22;;;;;;;13.55;4.60;;;;;;;;;;5011158;28;46021;-91
2021/12/10 04:09:49;;;;;;;9.45;3.60;;;;;;;;;;5010888;28;42909;-91
2021/12/10 04:12:17;;;;;;;14.63;3.78;;;;;;;;;;5010792;28;44478;-92
2021/12/10 04:14:46;;;;;;;8.52;3.33;;;;;;;;;;5011806;28;45351;-92
2021/12/10 04:17:13;;;;;;;10.13;3.60;;;;;;;;;;5011138;28;20138;-92
2021/12/10 04:19:40;;;;;;;9.32;3.53;;;;;;;;;;5011842;28;43621;-92
2021/12/10 04:22:08;;;;;;;7.95;3.17;;;;;;;;;;5011183;28;43863;-92
2021/12/10 04:24:36;;;;;;;10.13;3.55;;;;;;;;;;5010701;28;43896;-92
2021/12/10 04:27:04;;;;;;;8.43;3.80;;;;;;;;;;5011463;28;43552;-93
2021/12/10 04:29:31;;;;;;;13.85;3.92;;;;;;;;;;5011737;28;43849;-92
2021/12/10 04:31:58;;;;;;;12.82;3.95;;;;;;;;;;5010067;28;45747;-91
2021/12/10 04:34:26;;;;;;;8.43;4.13;;;;;;;;;;5011013;28;44465;-92
2021/12/10 04:36:54;;;;;;;10.90;4.00;;;;;;;;;;5010937;28;44757;-92
2021/12/10 04:39:21;;;;;;;12.63;4.38;;;;;;;;;;5010600;28;43623;-92
2021/12/10 04:41:47;;;;;;;7.68;3.70;;;;;;;;;;5010176;28;46016;-91
2021/12/10 04:44:14;;;;;;;7.65;3.90;;;;;;;;;;5010842;28;43967;-91
2021/12/10 04:46:41;;;;;;;12.25;4.10;;;;;;;;;;5010089;28;45020;-91
2021/12/10 04:49:12;;;;;;;10.35;3.97;;;;;;;;;;5010837;28;45942;-91
2021/12/10 04:51:42;;;;;;;9.60;3.88;;;;;;;;;;5009958;28;43623;-91
2021/12/10 04:54:09;;;;;;;8.93;3.85;;;;;;;;;;5011163;28;45951;-91
2021/12/10 04:56:37;;;;;;;9.60;3.72;;;;;;;;;;5009735;28;44841;-92
2021/12/10 04:59:05;;;;;;;12.45;3.95;;;;;;;;;;5010165;28;45659;-93
2021/12/10 05:01:32;;;;;;;;;;;;;;;;;;5012174;28;34369;-89
2021/12/10 05:03:59;;;;;;;6.57;3.65;;;;;;;;;;5010229;28;45077;-92
2021/12/10 05:06:26;;;;;;;12.20;3.40;;;;;;;;;;5007877;28;45756;-90
2021/12/10 05:08:53;;;;;;;17.65;3.92;;;;;;;;;;5008661;28;46060;-92
2021/12/10 05:11:20;;;;;;;13.13;3.72;;;;;;;;;;5008055;28;37098;-91
2021/12/10 05:13:47;;;;;;;8.18;3.55;;;;;;;;;;5008848;28;43922;-92
2021/12/10 05:16:15;;;;;;;10.77;3.90;;;;;;;;;;5009868;28;44884;-91
2021/12/10 05:18:45;;;;;;;13.70;4.15;;;;;;;;;;5010921;28;43883;-92
2021/12/10 05:21:13;;;;;;;8.43;3.35;;;;;;;;;;5008503;28;46058;-92
2021/12/10 05:23:39;;;;;;;12.02;4.25;;;;;;;;;;5010491;28;41497;-93
2021/12/10 05:26:07;;;;;;;5.35;3.47;;;;;;;;;;5009904;28;43725;-92
2021/12/10 05:28:33;;;;;;;9.15;3.40;;;;;;;;;;5008761;28;46034;-91
2021/12/10 05:31:00;;;;;;;7.78;3.22;;;;;;;;;;5008093;28;44997;-92
2021/12/10 05:33:28;;;;;;;8.43;2.90;;;;;;;;;;5008085;28;44900;-92
2021/12/10 05:35:57;;;;;;;10.02;3.60;;;;;;;;;;5007282;28;43907;-92
2021/12/10 05:38:24;;;;;;;8.93;3.15;;;;;;;;;;5009428;28;45747;-93
2021/12/10 05:40:53;;;;;;;11.07;3.92;;;;;;;;;;5008828;28;45980;-91
2021/12/10 05:43:20;;;;;;;6.53;2.90;;;;;;;;;;5010091;28;41746;-92
2021/12/10 05:45:47;;;;;;;7.70;3.00;;;;;;;;;;5009688;28;45617;-91
2021/12/10 05:48:14;;;;;;;10.27;3.60;;;;;;;;;;5009528;28;45899;-90
2021/12/10 05:50:44;;;;;;;7.50;2.95;;;;;;;;;;5010024;28;43892;-90
2021/12/10 05:53:11;;;;;;;6.47;3.13;;;;;;;;;;5010929;28;43656;-91
2021/12/10 05:55:38;;;;;;;8.57;3.65;;;;;;;;;;5009368;28;43905;-91
2021/12/10 05:58:06;;;;;;;8.38;2.83;;;;;;;;;;5010501;28;45626;-92
2021/12/10 06:00:37;;;;;;;11.50;3.28;;;;;;;;;;5008745;28;43986;-91
2021/12/10 06:03:05;;;;;;;14.23;3.78;;;;;;;;;;5009282;28;43578;-92
2021/12/10 06:05:34;;;;;;;7.95;2.70;;;;;;;;;;5010162;28;44610;-89
2021/12/10 06:08:02;;;;;;;9.20;3.47;;;;;;;;;;5009999;28;45946;-90
2021/12/10 06:10:28;;;;;;;8.13;3.28;;;;;;;;;;5009161;28;45155;-90
2021/12/10 06:12:56;;;;;;;6.05;2.55;;;;;;;;;;5009460;28;43786;-90
2021/12/10 06:15:23;;;;;;;11.77;3.35;;;;;;;;;;5010179;28;43972;-90
2021/12/10 06:17:49;;;;;;;9.00;3.10;;;;;;;;;;5008490;28;44955;-90
2021/12/10 06:20:18;;;;;;;9.07;3.22;;;;;;;;;;5009706;28;44810;-91
2021/12/10 06:22:45;;;;;;;8.63;2.97;;;;;;;;;;5022248;28;44904;-90
2021/12/10 06:25:12;;;;;;;10.85;3.05;;;;;;;;;;5004740;28;44630;-90
2021/12/10 06:27:44;;;;;;;8.90;3.00;;;;;;;;;;5012388;28;45327;-91
2021/12/10 06:30:15;;;;;;;8.38;3.28;;;;;;;;;;5017594;28;43980;-91
2021/12/10 06:32:43;;;;;;;10.00;3.22;;;;;;;;;;5006719;28;45860;-90
2021/12/10 06:35:10;;;;;;;11.35;3.15;;;;;;;;;;5008005;28;44472;-91
2021/12/10 06:37:38;;;;;;;15.65;3.42;;;;;;;;;;5008638;28;44877;-92
2021/12/10 06:40:06;;;;;;;11.15;3.40;;;;;;;;;;5010138;28;45918;-91
2021/12/10 06:42:33;;;;;;;12.05;3.33;;;;;;;;;;5009013;28;44182;-92
2021/12/10 06:45:04;;;;;;;14.20;3.60;;;;;;;;;;5008520;28;45713;-91
2021/12/10 06:47:31;;;;;;;11.40;3.80;;;;;;;;;;5008877;28;43936;-89
2021/12/10 06:49:58;;;;;;;10.68;3.35;;;;;;;;;;5009240;28;44858;-90
2021/12/10 06:52:25;;;;;;;12.90;3.53;;;;;;;;;;5007535;28;43502;-91
2021/12/10 06:54:52;;;;;;;10.57;3.58;;;;;;;;;;5009551;28;43993;-91
2021/12/10 06:57:19;;;;;;;12.30;3.70;;;;;;;;;;5008679;28;44958;-91
2021/12/10 06:59:46;;;;;;;11.65;3.35;;;;;;;;;;5009021;28;45768;-91
2021/12/10 07:02:12;;;;;;;9.80;3.65;;;;;;;;;;5008159;28;44892;-89
2021/12/10 07:04:42;;;;;;;6.70;3.08;;;;;;;;;;5009491;28;44194;-87
2021/12/10 07:07:14;;;;;;;9.32;3.80;;;;;;;;;;5007575;28;44135;-85
2021/12/10 07:09:41;;;;;;;9.55;3.25;;;;;;;;;;5009375;28;44825;-84
2021/12/10 07:12:08;;;;;;;9.75;3.75;;;;;;;;;;5008450;28;43645;-82
2021/12/10 07:14:36;;;;;;;9.73;4.03;;;;;;;;;;5012672;28;45968;-83
2021/12/10 07:17:02;;;;;;;14.38;4.00;;;;;;;;;;5012190;28;43126;-83
2021/12/10 07:19:29;;;;;;;9.30;3.60;;;;;;;;;;5012085;28;43689;-84
2021/12/10 07:21:56;;;;;;;9.10;3.53;;;;;;;;;;5011721;28;44127;-83
2021/12/10 07:24:23;;;;;;;11.20;4.13;;;;;;;;;;5012089;28;45713;-87
2021/12/10 07:26:50;;;;;;;7.68;3.47;;;;;;;;;;5011356;28;46087;-85
2021/12/10 07:29:17;;;;;;;10.90;3.80;;;;;;;;;;5012075;28;44929;-85
2021/12/10 07:31:45;;;;;;;7.60;3.45;;;;;;;;;;5011586;28;45701;-83
2021/12/10 07:34:12;;;;;;;11.05;4.25;;;;;;;;;;5011097;28;45981;-83
2021/12/10 07:36:39;;;;;;;13.25;3.78;;;;;;;;;;5011296;28;42878;-82
2021/12/10 07:39:07;;;;;;;7.47;3.50;;;;;;;;;;5011842;28;45735;-82
2021/12/10 07:41:35;;;;;;;10.27;3.53;;;;;;;;;;5010843;28;44015;-82
2021/12/10 07:44:02;;;;;;;10.53;3.93;;;;;;;;;;5018165;28;43606;-82
2021/12/10 07:46:29;;;;;;;9.73;3.60;;;;;;;;;;5020060;28;44874;-82
2021/12/10 07:48:56;;;;;;;11.10;3.78;;;;;;;;;;5010879;28;44952;-82
2021/12/10 07:51:24;;;;;;;7.15;3.20;;;;;;;;;;5013528;28;42589;-82
2021/12/10 07:53:57;;;;;;;9.50;3.80;;;;;;;;;;5028858;28;44949;-83
2021/12/10 07:56:26;;;;;;;10.65;3.40;;;;;;;;;;5031833;28;20144;-89
2021/12/10 07:58:53;;;;;;;11.05;3.50;;;;;;;;;;5029139;28;45771;-86
2021/12/10 08:01:24;;;;;;;8.10;2.95;;;;;;;;;;5008630;28;46225;-88
2021/12/10 08:03:52;;;;;;;8.77;2.97;;;;;;;;;;5011409;28;43942;-88
2021/12/10 08:06:20;;;;;;;6.95;3.60;;;;;;;;;;5009983;28;45084;-85
2021/12/10 08:08:47;;;;;;;17.38;3.47;;;;;;;;;;5010141;28;43014;-85
2021/12/10 08:11:14;;;;;;;8.30;3.22;;;;;;;;;;5009940;28;43646;-83
2021/12/10 08:13:41;;;;;;;8.00;3.50;;;;;;;;;;5010497;28;44039;-84
2021/12/10 08:16:07;;;;;;;17.02;3.97;;;;;;;;;;5009094;28;43971;-92
2021/12/10 08:18:36;;;;;;;13.23;3.55;;;;;;;;;;5010516;28;45747;-93
2021/12/10 08:21:04;;;;;;;13.05;3.17;;;;;;;;;;5009962;28;43908;-89
2021/12/10 08:23:31;;;;;;;9.20;3.17;;;;;;;;;;5008855;28;45167;-85
2021/12/10 08:25:58;;;;;;;16.17;4.05;;;;;;;;;;5010415;28;45754;-85
2021/12/10 08:28:26;;;;;;;12.32;3.40;;;;;;;;;;5014847;28;44896;-85
2021/12/10 08:30:54;;;;;;;7.25;3.20;;;;;;;;;;5010880;28;46173;-85
2021/12/10 08:33:23;;;;;;;7.72;3.10;;;;;;;;;;5009635;28;46356;-86
2021/12/10 08:35:52;;;;;;;11.93;3.33;;;;;;;;;;5004596;28;45226;-85
2021/12/10 08:38:18;;;;;;;14.30;3.17;;;;;;;;;;5017150;28;43599;-85
2021/12/10 08:40:51;;;;;;;8.95;3.25;;;;;;;;;;5018546;28;46412;-94
2021/12/10 08:43:18;;;;;;;10.65;3.10;;;;;;;;;;5019559;28;43994;-86
2021/12/10 08:45:44;;;;;;;8.90;2.97;;;;;;;;;;5027982;28;44808;-85
2021/12/10 08:48:12;;;;;;;15.15;3.47;;;;;;;;;;5023273;28;46338;-86
2021/12/10 08:50:39;;;;;;;13.25;3.35;;;;;;;;;;5028330;28;45605;-85
2021/12/10 08:53:07;;;;;;;19.23;4.03;;;;;;;;;;5018401;28;45982;-86
2021/12/10 08:55:35;;;;;;;8.38;3.42;;;;;;;;;;5009848;28;44954;-84
2021/12/10 08:58:02;;;;;;;8.53;3.43;;;;;;;;;;5008845;28;45657;-86
2021/12/10 09:00:30;;;;;;;10.85;3.60;;;;;;;;;;5011283;28;20472;-86
2021/12/10 09:02:58;;;;;;;14.52;4.20;;;;;;;;;;5010624;28;42965;-85
2021/12/10 09:05:25;;;;;;;12.73;3.83;;;;;;;;;;5007008;28;43643;-85
2021/12/10 09:07:52;;;;;;;13.00;3.63;;;;;;;;;;5007787;28;44974;-85
2021/12/10 09:10:21;;;;;;;11.68;3.75;;;;;;;;;;5009915;28;44905;-86
2021/12/10 09:12:48;;;;;;;19.67;4.32;;;;;;;;;;5008090;28;42513;-87
2021/12/10 09:15:19;;;;;;;10.57;3.45;;;;;;;;;;5008971;28;43850;-86
2021/12/10 09:17:47;;;;;;;9.05;4.15;;;;;;;;;;5007880;28;45721;-86
2021/12/10 09:20:17;;;;;;;10.00;3.90;;;;;;;;;;5007167;28;44650;-85
2021/12/10 09:22:44;;;;;;;15.85;4.35;;;;;;;;;;5008650;28;44237;-85
2021/12/10 09:25:11;;;;;;;12.80;4.57;;;;;;;;;;5009372;28;44628;-85
2021/12/10 09:27:38;;;;;;;13.07;3.97;;;;;;;;;;5007029;28;44071;-86
2021/12/10 09:30:07;;;;;;;10.75;3.63;;;;;;;;;;5013938;28;43210;-86
2021/12/10 09:32:33;;;;;;;8.82;4.10;;;;;;;;;;5008823;28;43856;-86
2021/12/10 09:35:05;;;;;;;15.55;3.90;;;;;;;;;;5007719;28;45009;-86
2021/12/10 09:37:33;;;;;;;11.32;3.85;;;;;;;;;;5008113;28;45964;-86
2021/12/10 09:40:02;;;;;;;14.38;3.55;;;;;;;;;;5007488;28;46332;-86
2021/12/10 09:42:29;;;;;;;11.43;4.50;;;;;;;;;;5008037;28;45196;-86
2021/12/10 09:44:56;;;;;;;11.95;3.85;;;;;;;;;;5008821;28;43888;-87
2021/12/10 09:47:23;;;;;;;12.32;4.43;;;;;;;;;;5006908;28;43941;-87
2021/12/10 09:49:52;;;;;;;8.43;3.60;;;;;;;;;;5007789;28;42978;-86
2021/12/10 09:52:20;;;;;;;14.20;4.10;;;;;;;;;;5008499;28;43488;-87
2021/12/10 09:54:46;;;;;;;14.80;4.30;;;;;;;;;;5007880;28;44358;-86
2021/12/10 09:57:16;;;;;;;11.65;4.35;;;;;;;;;;5007054;28;43660;-88
2021/12/10 09:59:44;;;;;;;13.77;3.88;;;;;;;;;;5008105;28;45445;-79
2021/12/10 10:02:12;;;;;;;14.03;4.87;;;;;;;;;;5007961;28;44959;-88
2021/12/10 10:04:44;;;;;;;;;;;;;;;;;;5011623;28;44834;-85
2021/12/10 10:07:13;;;;;;;13.50;4.40;;;;;;;;;;5020359;28;46289;-87
2021/12/10 10:09:41;;;;;;;15.68;4.32;;;;;;;;;;5013348;28;45044;-80
2021/12/10 10:12:11;;;;;;;11.20;4.03;;;;;;;;;;4998938;28;44693;-88
2021/12/10 10:14:38;;;;;;;13.57;4.47;;;;;;;;;;4989193;28;44013;-86
2021/12/10 10:17:07;;;;;;;10.68;4.13;;;;;;;;;;5001460;28;43710;-86
2021/12/10 10:19:35;;;;;;;11.50;4.63;;;;;;;;;;5006868;28;45961;-86
2021/12/10 10:22:03;;;;;;;16.02;5.05;;;;;;;;;;5007578;28;44275;-84
2021/12/10 10:24:33;;;;;;;15.18;4.50;;;;;;;;;;5008185;28;44643;-89
2021/12/10 10:27:06;;;;;;;15.93;4.30;;;;;;;;;;5009615;28;20512;-88
2021/12/10 10:29:35;;;;;;;14.88;4.82;;;;;;;;;;5011869;28;42938;-85
2021/12/10 10:32:09;;;;;;;17.42;4.10;;;;;;;;;;5008265;28;44358;-84
2021/12/10 10:34:38;;;;;;;9.70;4.10;;;;;;;;;;5007769;28;44516;-83
2021/12/10 10:37:05;;;;;;;13.43;4.68;;;;;;;;;;5007389;28;42803;-83
2021/12/10 10:39:34;;;;;;;13.05;4.63;;;;;;;;;;5020543;28;45997;-83
2021/12/10 10:42:04;;;;;;;16.30;4.65;;;;;;;;;;4984563;28;44981;-85
2021/12/10 10:44:51;;;;;;;14.82;4.35;;;;;;;;;;5008181;28;20141;-84
2021/12/10 10:47:23;;;;;;;13.43;4.43;;;;;;;;;;5006722;28;45996;-83
2021/12/10 10:49:55;;;;;;;11.13;4.78;;;;;;;;;;5007556;28;42970;-87
2021/12/10 10:52:29;;;;;;;12.43;4.53;;;;;;;;;;5001969;28;45726;-84
2021/12/10 10:54:58;;;;;;;12.90;4.25;;;;;;;;;;5009275;28;44796;-84
2021/12/10 10:57:27;;;;;;;18.25;4.55;;;;;;;;;;5005870;28;43866;-85
2021/12/10 10:59:57;;;;;;;20.20;4.65;;;;;;;;;;5026936;28;43637;-84
2021/12/10 11:02:26;;;;;;;13.98;5.10;;;;;;;;;;5026615;28;42891;-84
2021/12/10 11:04:54;;;;;;;13.13;4.07;;;;;;;;;;5026949;28;44186;-81
2021/12/10 11:07:26;;;;;;;15.77;4.82;;;;;;;;;;5025610;28;46056;-88
2021/12/10 11:09:59;;;;;;;13.02;4.60;;;;;;;;;;5025691;28;44737;-87
2021/12/10 11:12:29;;;;;;;14.60;4.20;;;;;;;;;;5005959;28;43639;-88
2021/12/10 11:14:57;;;;;;;12.65;3.95;;;;;;;;;;5004149;28;44150;-87
2021/12/10 11:17:32;;;;;;;10.25;4.10;;;;;;;;;;4997597;28;44970;-84
2021/12/10 11:20:01;;;;;;;9.95;4.85;;;;;;;;;;5006519;28;45744;-86
2021/12/10 11:22:28;;;;;;;10.50;4.20;;;;;;;;;;5005923;28;45069;-87
2021/12/10 11:24:59;;;;;;;17.77;4.82;;;;;;;;;;5006538;28;43508;-87
2021/12/10 11:27:46;;;;;;;9.60;3.88;;;;;;;;;;5005152;28;43665;-87
2021/12/10 11:30:23;;;;;;;14.10;4.10;;;;;;;;;;5006431;28;44921;-87
2021/12/10 11:32:53;;;;;;;8.57;4.10;;;;;;;;;;5005060;28;44663;-86
2021/12/10 11:35:26;;;;;;;9.90;4.03;;;;;;;;;;5006796;28;43724;-89
2021/12/10 11:37:55;;;;;;;11.40;4.00;;;;;;;;;;5006155;28;44909;-87
2021/12/10 11:40:27;;;;;;;10.63;4.35;;;;;;;;;;5005248;28;44229;-88
2021/12/10 11:43:02;;;;;;;11.68;3.80;;;;;;;;;;5004830;28;45978;-83
2021/12/10 11:45:34;;;;;;;16.52;3.80;;;;;;;;;;5006097;28;45689;-82
2021/12/10 11:48:07;;;;;;;16.27;3.60;;;;;;;;;;5019682;28;46264;-83
2021/12/10 11:50:37;;;;;;;11.05;4.15;;;;;;;;;;5012599;28;42812;-84
2021/12/10 11:53:06;;;;;;;10.93;3.70;;;;;;;;;;5007043;28;43600;-83
2021/12/10 11:55:35;;;;;;;10.65;4.07;;;;;;;;;;5004215;28;45847;-86
2021/12/10 11:58:03;;;;;;;9.50;3.80;;;;;;;;;;5003685;28;44931;-88
2021/12/10 12:00:33;;;;;;;19.02;4.63;;;;;;;;;;5008686;28;45671;-89
2021/12/10 12:03:02;;;;;;;13.48;3.65;;;;;;;;;;5010065;28;45969;-88
2021/12/10 12:05:34;;;;;;;17.73;4.43;;;;;;;;;;5007715;28;44804;-88
2021/12/10 12:08:04;;;;;;;9.80;3.33;;;;;;;;;;5008696;28;43588;-89
2021/12/10 12:10:38;;;;;;;12.43;3.80;;;;;;;;;;5007186;28;44994;-88
2021/12/10 12:15:46;;;;;;;17.33;3.92;;;;;;;;;;5009322;28;46271;-93
2021/12/10 12:29:21;;;;;;;11.95;2.97;;;;;;;;;;5058830;28;20046;-96
2021/12/10 12:40:04;;;;;;;8.02;2.35;;;;;;;;;;4980510;28;20454;-95
2021/12/10 12:42:33;;;;;;;9.40;3.05;;;;;;;;;;4984573;28;45664;-96
2021/12/10 12:45:02;;;;;;;8.25;2.40;;;;;;;;;;4990065;28;45589;-94
2021/12/10 12:47:50;;;;;;;11.80;3.05;;;;;;;;;;4987920;28;43083;-96
2021/12/10 12:50:39;;;;;;;13.13;3.63;;;;;;;;;;5063144;22;20046;-96
2021/12/10 12:53:13;;;;;;;9.85;3.10;;;;;;;;;;5041948;28;24491;-95
2021/12/10 12:55:47;;;;;;;11.57;2.53;;;;;;;;;;5041482;28;45984;-96
2021/12/10 12:58:17;;;;;;;11.00;2.70;;;;;;;;;;5038073;28;20050;-95
2021/12/10 13:01:10;;;;;;;10.82;2.90;;;;;;;;;;5037650;28;30222;-96
2021/12/10 13:03:38;;;;;;;8.15;2.38;;;;;;;;;;5034578;28;20057;-93
2021/12/10 13:06:29;;;;;;;10.05;3.03;;;;;;;;;;5036546;28;45129;-96
2021/12/10 13:09:05;;;;;;;9.88;2.83;;;;;;;;;;5034876;28;43974;-95
2021/12/10 13:12:31;;;;;;;8.45;3.20;;;;;;;;;;5036914;28;45736;-96
2021/12/10 13:14:54;;;;;;;9.77;3.15;;;;;;;;;;5041732;28;45933;-96
2021/12/10 13:17:24;;;;;;;8.35;2.88;;;;;;;;;;5038529;28;44875;-95
2021/12/10 13:19:53;;;;;;;15.20;3.30;;;;;;;;;;5044107;28;44284;-96
2021/12/10 13:22:23;;;;;;;11.32;3.20;;;;;;;;;;5040594;28;43813;-91
2021/12/10 13:24:53;;;;;;;5.50;2.63;;;;;;;;;;5030494;28;44669;-94
2021/12/10 13:27:21;;;;;;;12.52;3.47;;;;;;;;;;5034763;28;44872;-96
2021/12/10 13:30:07;;;;;;;;;;;;;;;;;;5032560;28;45688;-94
2021/12/10 13:32:34;;;;;;;8.68;3.13;;;;;;;;;;5029015;28;45378;-92
2021/12/10 13:35:02;;;;;;;9.52;3.22;;;;;;;;;;5028961;28;46125;-92
2021/12/10 13:37:29;;;;;;;11.52;3.13;;;;;;;;;;5029953;28;43883;-92
2021/12/10 13:39:59;;;;;;;7.20;2.83;;;;;;;;;;5015297;28;43982;-86
2021/12/10 13:42:26;;;;;;;10.70;3.25;;;;;;;;;;5035015;28;44849;-95
2021/12/10 13:44:55;;;;;;;10.05;3.47;;;;;;;;;;5033488;28;45565;-94
2021/12/10 13:47:40;;;;;;;13.73;3.70;;;;;;;;;;5039200;28;44307;-96
2021/12/10 13:50:14;;;;;;;8.13;3.20;;;;;;;;;;5081940;22;20026;-96
2021/12/10 13:52:46;;;;;;;12.70;2.90;;;;;;;;;;5097222;22;44619;-94
2021/12/10 13:55:13;;;;;;;9.68;3.58;;;;;;;;;;5046317;28;44925;-95
2021/12/10 13:57:40;;;;;;;9.10;3.13;;;;;;;;;;5041440;28;20058;-96
2021/12/10 14:00:08;;;;;;;10.07;3.45;;;;;;;;;;5034302;28;43866;-96
2021/12/10 14:02:35;;;;;;;;;;;;;;;;;;5039122;28;36947;-94
2021/12/10 14:05:21;;;;;;;6.63;2.55;;;;;;;;;;5035883;28;44328;-95
2021/12/10 14:07:58;;;;;;;9.60;3.10;;;;;;;;;;5041997;28;44013;-96
2021/12/10 14:10:31;;;;;;;6.82;2.45;;;;;;;;;;5016358;28;43956;-93
2021/12/10 14:12:59;;;;;;;11.02;2.90;;;;;;;;;;5021513;28;44636;-95
2021/12/10 14:15:27;;;;;;;;;;;;;;;;;;5060183;28;44901;-94
2021/12/10 14:17:58;;;;;;;6.40;3.22;;;;;;;;;;5033171;28;44943;-94
2021/12/10 14:20:48;;;;;;;6.10;2.83;;;;;;;;;;5032440;28;44429;-96
2021/12/10 14:23:52;;;;;;;8.98;3.50;;;;;;;;;;5029852;28;46216;-91
2021/12/10 14:26:38;;;;;;;8.85;3.40;;;;;;;;;;5052582;28;46058;-95
2021/12/10 14:29:25;;;;;;;11.27;3.47;;;;;;;;;;5084368;22;45127;-96
2021/12/10 14:32:19;;;;;;;29.23;5.82;;;;;;;;;;5031811;28;43048;-92
2021/12/10 14:35:07;;;;;;;23.77;13.77;;;;;;;;;;5030087;28;38504;-94
2021/12/10 14:37:49;;;;;;;9.50;3.33;;;;;;;;;;5039784;28;46547;-96
2021/12/10 14:40:48;;;;;;;11.38;3.30;;;;;;;;;;5036578;28;43745;-95
2021/12/10 14:43:28;;;;;;;10.60;4.55;;;;;;;;;;5034167;28;45768;-94
2021/12/10 14:46:01;;;;;;;21.23;4.43;;;;;;;;;;5038496;28;45002;-94
2021/12/10 14:48:28;;;;;;;17.63;7.30;;;;;;;;;;5035948;28;43852;-93
2021/12/10 14:51:17;;;;;;;12.40;5.03;;;;;;;;;;5037145;28;44964;-96
2021/12/10 14:54:22;;;;;;;8.10;3.25;;;;;;;;;;5033227;28;44178;-93
2021/12/10 14:57:08;;;;;;;9.55;2.90;;;;;;;;;;5049527;28;20054;-96
2021/12/10 14:59:55;;;;;;;9.02;2.70;;;;;;;;;;5036786;28;20064;-94
2021/12/10 15:02:42;;;;;;;12.07;3.20;;;;;;;;;;5038833;28;25161;-96
2021/12/10 15:05:35;;;;;;;14.35;3.20;;;;;;;;;;5041248;28;20053;-95
2021/12/10 15:08:35;;;;;;;12.35;3.53;;;;;;;;;;5037639;28;45155;-96
2021/12/10 15:11:21;;;;;;;7.75;3.33;;;;;;;;;;5030443;28;42850;-94
2021/12/10 15:14:20;;;;;;;9.50;3.05;;;;;;;;;;5045034;28;46015;-94
2021/12/10 15:17:03;;;;;;;8.63;3.05;;;;;;;;;;5034236;28;20487;-95
2021/12/10 15:19:37;;;;;;;9.40;2.88;;;;;;;;;;5035713;28;20510;-96
2021/12/10 15:22:09;;;;;;;11.85;3.45;;;;;;;;;;5036233;28;46283;-96
2021/12/10 15:24:47;;;;;;;8.02;3.95;;;;;;;;;;5028977;28;45225;-96
2021/12/10 15:27:25;;;;;;;10.38;4.18;;;;;;;;;;5036651;28;44686;-96